TimeCST,TemperatureF,Dew PointF,Humidity,Sea Level PressureIn,VisibilityMPH,Wind Direction,Wind SpeedMPH,Gust SpeedMPH,PrecipitationIn,Events,Conditions,WindDirDegrees,DateUTC
12:51 AM,18.0,14.0,84,30.31,10.0,Calm,Calm,-,N/A,,Clear,0,2013-01-02 06:51:00
2:51 AM,18.0,14.0,84,30.31,10.0,West,6.9,-,N/A,,Clear,260,2013-01-02 08:51:00
4:51 AM,18.0,15.1,88,30.29,9.0,West,9.2,-,N/A,,Clear,260,2013-01-02 10:51:00
5:51 AM,17.1,14.0,88,30.28,9.0,West,3.5,-,N/A,,Clear,280,2013-01-02 11:51:00
6:51 AM,19.0,15.1,85,30.28,10.0,West,6.9,-,N/A,,Clear,260,2013-01-02 12:51:00
7:51 AM,19.0,15.1,85,30.30,10.0,WSW,4.6,-,N/A,,Clear,250,2013-01-02 13:51:00
8:51 AM,19.0,15.1,85,30.32,10.0,West,8.1,-,N/A,,Clear,270,2013-01-02 14:51:00
9:51 AM,23.0,17.1,78,30.35,10.0,WNW,6.9,-,N/A,,Clear,290,2013-01-02 15:51:00
10:51 AM,26.1,17.1,69,30.36,10.0,West,4.6,-,N/A,,Clear,270,2013-01-02 16:51:00
11:51 AM,30.9,18.0,59,30.35,10.0,Calm,Calm,-,0.03,,Clear,0,2013-01-02 17:51:00
12:51 PM,36.0,21.9,57,30.29,10.0,North,9.2,-,N/A,,Clear,360,2013-01-02 18:51:00
2:51 PM,37.9,21.9,53,30.27,10.0,NNW,6.9,-,N/A,,Clear,340,2013-01-02 20:51:00
3:51 PM,37.9,23.0,55,30.28,10.0,NNW,10.4,-,N/A,,Clear,340,2013-01-02 21:51:00
5:51 PM,32.0,23.0,69,30.33,10.0,North,8.1,-,N/A,,Clear,360,2013-01-02 23:51:00
6:51 PM,30.0,23.0,75,30.35,10.0,North,4.6,-,N/A,,Clear,350,2013-01-03 00:51:00
7:51 PM,28.9,21.9,75,30.36,10.0,NNW,4.6,-,N/A,,Clear,340,2013-01-03 01:51:00
8:51 PM,26.1,21.9,84,30.38,10.0,SW,5.8,-,N/A,,Clear,220,2013-01-03 02:51:00
9:51 PM,26.1,21.9,84,30.39,10.0,West,3.5,-,N/A,,Clear,270,2013-01-03 03:51:00
10:51 PM,26.1,21.0,81,30.40,10.0,WSW,5.8,-,N/A,,Clear,250,2013-01-03 04:51:00
11:51 PM,25.0,19.9,81,30.41,10.0,West,4.6,-,N/A,,Clear,270,2013-01-03 05:51:00